Current Conditions
Scattered
Clouds



Pressure
1026.92 (mb) - 30.32 (inHG)
Visibility

10.0 (km) - 6.2 (miles)
Temperature
17  °C
Temperature
15  °C
Dewpoint
88  %
 Humidity
Wind Speed
3  km/h
2  kts
2  mph
0.9  m/s
Wind Direction
N
45°
E
90°
135°
S
180°
225°
W
270°
315°
Calm

Due North
Airport Data
LEAS
Asturias Airport
Metar :LEAS 211600Z VRB02KT 9999 SCT016 FEW031TCU BKN036 17/15 Q1027 NOSIG
Tue 21st September 18:00 pm
Raw Metar Info
Raw METAR is the most common format in the world for the transmission of observational weather data. It is highly standardized through the International Civil Aviation Organization (ICAO), which allows it to be understood throughout most of the world.
API Info
Data Provided by
https://www.checkwx.com/weather/LEAS

Aviation Weather providing METAR, TAF, AIRMET, SIGMET and OUTLOOK Weather Reports
© Info
CSS/SVG/PHP scripts were developed by weather34.com for use in the weather34 template © 2015-2021

Guide Info provided by Metar-Wikipedia